sensor_id;sensor_type;location;lat;lon;timestamp;P1;durP1;ratioP1;P2;durP2;ratioP2
17763;SDS011;22245;52.832;13.816;2024-03-02T00:03:09;91.27;;;46.03;;
17763;SDS011;22245;52.832;13.816;2024-03-02T00:06:34;93.83;;;45.53;;
17763;SDS011;22245;52.832;13.816;2024-03-02T00:09:56;95.60;;;45.27;;
17763;SDS011;22245;52.832;13.816;2024-03-02T00:13:20;92.47;;;46.10;;
17763;SDS011;22245;52.832;13.816;2024-03-02T00:16:44;99.27;;;46.67;;
17763;SDS011;22245;52.832;13.816;2024-03-02T00:20:06;92.87;;;46.63;;
17763;SDS011;22245;52.832;13.816;2024-03-02T00:23:30;92.23;;;45.40;;
17763;SDS011;22245;52.832;13.816;2024-03-02T00:26:52;94.27;;;46.03;;
17763;SDS011;22245;52.832;13.816;2024-03-02T00:34:06;91.90;;;44.93;;
17763;SDS011;22245;52.832;13.816;2024-03-02T00:37:27;93.07;;;46.30;;
17763;SDS011;22245;52.832;13.816;2024-03-02T00:40:50;90.20;;;46.23;;
17763;SDS011;22245;52.832;13.816;2024-03-02T00:44:12;91.20;;;46.60;;
17763;SDS011;22245;52.832;13.816;2024-03-02T00:47:36;90.63;;;45.73;;
17763;SDS011;22245;52.832;13.816;2024-03-02T00:50:59;90.17;;;45.70;;
17763;SDS011;22245;52.832;13.816;2024-03-02T00:54:21;92.57;;;46.03;;
17763;SDS011;22245;52.832;13.816;2024-03-02T00:57:44;89.80;;;45.47;;
17763;SDS011;22245;52.832;13.816;2024-03-02T01:01:06;96.97;;;45.67;;
17763;SDS011;22245;52.832;13.816;2024-03-02T01:04:29;90.07;;;46.40;;
17763;SDS011;22245;52.832;13.816;2024-03-02T01:07:51;88.40;;;45.90;;
17763;SDS011;22245;52.832;13.816;2024-03-02T01:11:12;92.90;;;44.93;;
17763;SDS011;22245;52.832;13.816;2024-03-02T01:14:34;87.87;;;44.27;;
17763;SDS011;22245;52.832;13.816;2024-03-02T01:17:56;88.60;;;44.20;;
17763;SDS011;22245;52.832;13.816;2024-03-02T01:21:18;90.03;;;44.07;;
17763;SDS011;22245;52.832;13.816;2024-03-02T01:24:40;91.33;;;45.97;;
17763;SDS011;22245;52.832;13.816;2024-03-02T01:28:01;87.93;;;45.43;;
17763;SDS011;22245;52.832;13.816;2024-03-02T01:31:23;88.13;;;44.50;;
17763;SDS011;22245;52.832;13.816;2024-03-02T01:34:44;80.77;;;42.13;;
17763;SDS011;22245;52.832;13.816;2024-03-02T01:38:07;80.00;;;42.47;;
17763;SDS011;22245;52.832;13.816;2024-03-02T01:41:29;80.70;;;43.40;;
17763;SDS011;22245;52.832;13.816;2024-03-02T01:44:51;84.17;;;43.83;;
17763;SDS011;22245;52.832;13.816;2024-03-02T01:48:12;86.67;;;44.20;;
17763;SDS011;22245;52.832;13.816;2024-03-02T01:51:34;87.17;;;44.83;;
17763;SDS011;22245;52.832;13.816;2024-03-02T01:54:57;89.63;;;44.00;;
17763;SDS011;22245;52.832;13.816;2024-03-02T01:58:18;83.40;;;43.93;;
17763;SDS011;22245;52.832;13.816;2024-03-02T02:01:40;89.07;;;43.87;;
17763;SDS011;22245;52.832;13.816;2024-03-02T02:05:02;92.77;;;44.73;;
17763;SDS011;22245;52.832;13.816;2024-03-02T02:08:24;92.47;;;46.13;;
17763;SDS011;22245;52.832;13.816;2024-03-02T02:11:47;83.97;;;44.13;;
17763;SDS011;22245;52.832;13.816;2024-03-02T02:15:21;91.47;;;45.00;;
17763;SDS011;22245;52.832;13.816;2024-03-02T02:18:44;81.77;;;42.20;;
17763;SDS011;22245;52.832;13.816;2024-03-02T02:22:07;88.80;;;45.77;;
17763;SDS011;22245;52.832;13.816;2024-03-02T02:25:28;86.63;;;44.23;;
17763;SDS011;22245;52.832;13.816;2024-03-02T02:28:50;84.10;;;44.70;;
17763;SDS011;22245;52.832;13.816;2024-03-02T02:32:11;88.30;;;44.57;;
17763;SDS011;22245;52.832;13.816;2024-03-02T02:35:32;85.90;;;44.33;;
17763;SDS011;22245;52.832;13.816;2024-03-02T02:38:55;85.33;;;43.90;;
17763;SDS011;22245;52.832;13.816;2024-03-02T02:42:16;80.37;;;42.17;;
17763;SDS011;22245;52.832;13.816;2024-03-02T02:45:38;83.40;;;42.80;;
17763;SDS011;22245;52.832;13.816;2024-03-02T02:49:00;81.50;;;43.60;;
17763;SDS011;22245;52.832;13.816;2024-03-02T02:52:22;83.50;;;43.70;;
17763;SDS011;22245;52.832;13.816;2024-03-02T02:55:45;82.97;;;42.60;;
17763;SDS011;22245;52.832;13.816;2024-03-02T02:59:06;86.83;;;44.87;;
17763;SDS011;22245;52.832;13.816;2024-03-02T03:02:28;85.00;;;43.90;;
17763;SDS011;22245;52.832;13.816;2024-03-02T03:05:50;85.43;;;45.67;;
17763;SDS011;22245;52.832;13.816;2024-03-02T03:09:11;84.07;;;44.80;;
17763;SDS011;22245;52.832;13.816;2024-03-02T03:12:35;81.47;;;43.70;;
17763;SDS011;22245;52.832;13.816;2024-03-02T03:15:57;84.80;;;45.00;;
17763;SDS011;22245;52.832;13.816;2024-03-02T03:19:18;85.27;;;44.70;;
17763;SDS011;22245;52.832;13.816;2024-03-02T03:22:40;92.50;;;45.67;;
17763;SDS011;22245;52.832;13.816;2024-03-02T03:26:01;84.80;;;42.30;;
17763;SDS011;22245;52.832;13.816;2024-03-02T03:29:24;83.53;;;44.63;;
17763;SDS011;22245;52.832;13.816;2024-03-02T03:32:46;81.40;;;42.70;;
17763;SDS011;22245;52.832;13.816;2024-03-02T03:36:08;79.83;;;42.60;;
17763;SDS011;22245;52.832;13.816;2024-03-02T03:39:30;84.93;;;44.83;;
17763;SDS011;22245;52.832;13.816;2024-03-02T03:42:52;81.40;;;43.70;;
17763;SDS011;22245;52.832;13.816;2024-03-02T03:46:15;88.50;;;43.47;;
17763;SDS011;22245;52.832;13.816;2024-03-02T03:49:36;77.90;;;43.17;;
17763;SDS011;22245;52.832;13.816;2024-03-02T03:52:58;80.07;;;42.77;;
17763;SDS011;22245;52.832;13.816;2024-03-02T03:56:19;73.07;;;40.33;;
17763;SDS011;22245;52.832;13.816;2024-03-02T03:59:40;77.53;;;42.73;;
17763;SDS011;22245;52.832;13.816;2024-03-02T04:03:04;74.67;;;40.80;;
17763;SDS011;22245;52.832;13.816;2024-03-02T04:06:25;74.23;;;39.40;;
17763;SDS011;22245;52.832;13.816;2024-03-02T04:09:47;78.97;;;41.43;;
17763;SDS011;22245;52.832;13.816;2024-03-02T04:13:09;81.13;;;42.10;;
17763;SDS011;22245;52.832;13.816;2024-03-02T04:16:30;75.73;;;41.17;;
17763;SDS011;22245;52.832;13.816;2024-03-02T04:19:53;75.27;;;41.67;;
17763;SDS011;22245;52.832;13.816;2024-03-02T04:23:14;76.43;;;42.27;;
17763;SDS011;22245;52.832;13.816;2024-03-02T04:26:35;77.83;;;41.13;;
17763;SDS011;22245;52.832;13.816;2024-03-02T04:29:57;76.30;;;41.03;;
17763;SDS011;22245;52.832;13.816;2024-03-02T04:33:20;73.70;;;40.23;;
17763;SDS011;22245;52.832;13.816;2024-03-02T04:36:43;73.60;;;41.50;;
17763;SDS011;22245;52.832;13.816;2024-03-02T04:40:05;73.90;;;40.07;;
17763;SDS011;22245;52.832;13.816;2024-03-02T04:43:29;69.03;;;39.13;;
17763;SDS011;22245;52.832;13.816;2024-03-02T04:46:51;71.43;;;39.37;;
17763;SDS011;22245;52.832;13.816;2024-03-02T04:50:13;67.07;;;39.37;;
17763;SDS011;22245;52.832;13.816;2024-03-02T04:53:36;73.37;;;39.90;;
17763;SDS011;22245;52.832;13.816;2024-03-02T04:56:58;71.00;;;39.77;;
17763;SDS011;22245;52.832;13.816;2024-03-02T05:00:19;71.73;;;40.23;;
17763;SDS011;22245;52.832;13.816;2024-03-02T05:03:41;71.20;;;39.17;;
17763;SDS011;22245;52.832;13.816;2024-03-02T05:07:02;68.27;;;39.20;;
17763;SDS011;22245;52.832;13.816;2024-03-02T05:10:26;72.20;;;39.47;;
17763;SDS011;22245;52.832;13.816;2024-03-02T05:13:47;70.60;;;40.57;;
17763;SDS011;22245;52.832;13.816;2024-03-02T05:17:08;68.40;;;39.03;;
17763;SDS011;22245;52.832;13.816;2024-03-02T05:20:30;65.07;;;38.60;;
17763;SDS011;22245;52.832;13.816;2024-03-02T05:23:52;67.00;;;38.47;;
17763;SDS011;22245;52.832;13.816;2024-03-02T05:27:14;72.93;;;39.37;;
17763;SDS011;22245;52.832;13.816;2024-03-02T05:30:36;70.70;;;39.47;;
17763;SDS011;22245;52.832;13.816;2024-03-02T05:33:58;65.00;;;36.10;;
17763;SDS011;22245;52.832;13.816;2024-03-02T05:37:19;68.93;;;37.80;;
17763;SDS011;22245;52.832;13.816;2024-03-02T05:40:41;69.03;;;38.97;;
17763;SDS011;22245;52.832;13.816;2024-03-02T05:44:04;67.77;;;38.33;;
17763;SDS011;22245;52.832;13.816;2024-03-02T05:47:25;67.17;;;37.47;;
17763;SDS011;22245;52.832;13.816;2024-03-02T05:50:48;65.73;;;38.17;;
17763;SDS011;22245;52.832;13.816;2024-03-02T05:54:09;69.70;;;37.47;;
17763;SDS011;22245;52.832;13.816;2024-03-02T05:57:31;62.43;;;37.73;;
17763;SDS011;22245;52.832;13.816;2024-03-02T06:01:10;71.10;;;38.87;;
17763;SDS011;22245;52.832;13.816;2024-03-02T06:04:32;71.28;;;37.97;;
17763;SDS011;22245;52.832;13.816;2024-03-02T06:07:53;65.15;;;36.55;;
17763;SDS011;22245;52.832;13.816;2024-03-02T06:11:15;64.43;;;36.70;;
17763;SDS011;22245;52.832;13.816;2024-03-02T06:14:37;64.60;;;37.10;;
17763;SDS011;22245;52.832;13.816;2024-03-02T06:18:00;64.53;;;36.13;;
17763;SDS011;22245;52.832;13.816;2024-03-02T06:21:21;62.47;;;35.60;;
17763;SDS011;22245;52.832;13.816;2024-03-02T06:24:43;61.77;;;35.50;;
17763;SDS011;22245;52.832;13.816;2024-03-02T06:28:04;65.70;;;37.57;;
17763;SDS011;22245;52.832;13.816;2024-03-02T06:31:27;61.60;;;35.97;;
17763;SDS011;22245;52.832;13.816;2024-03-02T06:34:51;60.63;;;36.33;;
17763;SDS011;22245;52.832;13.816;2024-03-02T06:38:13;60.23;;;35.00;;
17763;SDS011;22245;52.832;13.816;2024-03-02T06:41:34;58.53;;;35.73;;
17763;SDS011;22245;52.832;13.816;2024-03-02T06:44:55;61.67;;;35.97;;
17763;SDS011;22245;52.832;13.816;2024-03-02T06:48:16;61.40;;;35.57;;
17763;SDS011;22245;52.832;13.816;2024-03-02T06:51:41;67.40;;;38.42;;
17763;SDS011;22245;52.832;13.816;2024-03-02T06:55:03;70.00;;;39.42;;
17763;SDS011;22245;52.832;13.816;2024-03-02T06:58:26;65.53;;;36.43;;
17763;SDS011;22245;52.832;13.816;2024-03-02T07:01:47;63.90;;;36.17;;
17763;SDS011;22245;52.832;13.816;2024-03-02T07:05:09;65.37;;;36.37;;
17763;SDS011;22245;52.832;13.816;2024-03-02T07:08:32;69.90;;;35.50;;
17763;SDS011;22245;52.832;13.816;2024-03-02T07:11:54;68.53;;;35.77;;
17763;SDS011;22245;52.832;13.816;2024-03-02T07:15:16;64.57;;;36.47;;
17763;SDS011;22245;52.832;13.816;2024-03-02T07:19:04;66.90;;;35.87;;
17763;SDS011;22245;52.832;13.816;2024-03-02T07:22:27;71.05;;;37.05;;
17763;SDS011;22245;52.832;13.816;2024-03-02T07:25:50;66.05;;;37.88;;
17763;SDS011;22245;52.832;13.816;2024-03-02T07:29:14;67.22;;;37.65;;
17763;SDS011;22245;52.832;13.816;2024-03-02T07:32:36;68.75;;;37.05;;
17763;SDS011;22245;52.832;13.816;2024-03-02T07:35:57;73.45;;;37.50;;
17763;SDS011;22245;52.832;13.816;2024-03-02T07:39:24;68.47;;;37.13;;
17763;SDS011;22245;52.832;13.816;2024-03-02T07:42:47;68.90;;;38.63;;
17763;SDS011;22245;52.832;13.816;2024-03-02T07:46:09;75.03;;;39.45;;
17763;SDS011;22245;52.832;13.816;2024-03-02T07:49:30;70.75;;;38.05;;
17763;SDS011;22245;52.832;13.816;2024-03-02T07:52:52;71.45;;;37.38;;
17763;SDS011;22245;52.832;13.816;2024-03-02T07:56:13;70.63;;;37.88;;
17763;SDS011;22245;52.832;13.816;2024-03-02T07:59:43;75.35;;;38.30;;
17763;SDS011;22245;52.832;13.816;2024-03-02T08:03:04;72.53;;;38.58;;
17763;SDS011;22245;52.832;13.816;2024-03-02T08:06:26;69.57;;;38.22;;
17763;SDS011;22245;52.832;13.816;2024-03-02T08:09:49;68.30;;;38.20;;
17763;SDS011;22245;52.832;13.816;2024-03-02T08:13:10;70.18;;;36.88;;
17763;SDS011;22245;52.832;13.816;2024-03-02T08:16:33;67.13;;;37.88;;
17763;SDS011;22245;52.832;13.816;2024-03-02T08:19:54;69.55;;;37.45;;
17763;SDS011;22245;52.832;13.816;2024-03-02T08:23:16;66.97;;;35.53;;
17763;SDS011;22245;52.832;13.816;2024-03-02T08:26:38;67.80;;;36.85;;
17763;SDS011;22245;52.832;13.816;2024-03-02T08:29:59;66.28;;;35.83;;
17763;SDS011;22245;52.832;13.816;2024-03-02T08:33:25;65.63;;;36.88;;
17763;SDS011;22245;52.832;13.816;2024-03-02T08:36:46;66.63;;;35.97;;
17763;SDS011;22245;52.832;13.816;2024-03-02T08:40:08;64.05;;;36.08;;
17763;SDS011;22245;52.832;13.816;2024-03-02T08:43:34;59.65;;;34.30;;
17763;SDS011;22245;52.832;13.816;2024-03-02T08:46:56;67.25;;;35.60;;
17763;SDS011;22245;52.832;13.816;2024-03-02T08:50:19;67.13;;;36.53;;
17763;SDS011;22245;52.832;13.816;2024-03-02T08:53:40;73.68;;;37.20;;
17763;SDS011;22245;52.832;13.816;2024-03-02T08:57:02;60.47;;;35.58;;
17763;SDS011;22245;52.832;13.816;2024-03-02T09:00:24;70.20;;;36.80;;
17763;SDS011;22245;52.832;13.816;2024-03-02T09:03:46;67.43;;;36.58;;
17763;SDS011;22245;52.832;13.816;2024-03-02T09:07:10;67.22;;;36.05;;
17763;SDS011;22245;52.832;13.816;2024-03-02T09:10:32;73.53;;;36.97;;
17763;SDS011;22245;52.832;13.816;2024-03-02T09:13:54;68.03;;;36.55;;
17763;SDS011;22245;52.832;13.816;2024-03-02T09:21:07;69.72;;;35.42;;
17763;SDS011;22245;52.832;13.816;2024-03-02T09:24:30;69.07;;;36.15;;
17763;SDS011;22245;52.832;13.816;2024-03-02T09:27:51;63.20;;;34.88;;
17763;SDS011;22245;52.832;13.816;2024-03-02T09:31:14;69.18;;;36.22;;
17763;SDS011;22245;52.832;13.816;2024-03-02T09:34:36;64.20;;;35.03;;
17763;SDS011;22245;52.832;13.816;2024-03-02T09:37:58;65.13;;;33.95;;
17763;SDS011;22245;52.832;13.816;2024-03-02T09:41:21;65.65;;;34.47;;
17763;SDS011;22245;52.832;13.816;2024-03-02T09:44:42;57.85;;;31.08;;
17763;SDS011;22245;52.832;13.816;2024-03-02T09:48:05;62.53;;;31.45;;
17763;SDS011;22245;52.832;13.816;2024-03-02T09:51:26;60.50;;;31.38;;
17763;SDS011;22245;52.832;13.816;2024-03-02T09:54:48;54.90;;;30.98;;
17763;SDS011;22245;52.832;13.816;2024-03-02T09:58:12;57.67;;;30.13;;
17763;SDS011;22245;52.832;13.816;2024-03-02T10:01:33;51.10;;;29.60;;
17763;SDS011;22245;52.832;13.816;2024-03-02T10:04:54;48.47;;;27.00;;
17763;SDS011;22245;52.832;13.816;2024-03-02T10:08:15;52.38;;;27.63;;
17763;SDS011;22245;52.832;13.816;2024-03-02T10:11:37;48.65;;;27.30;;
17763;SDS011;22245;52.832;13.816;2024-03-02T10:15:04;52.03;;;28.25;;
17763;SDS011;22245;52.832;13.816;2024-03-02T10:18:27;48.03;;;26.50;;
17763;SDS011;22245;52.832;13.816;2024-03-02T10:21:50;50.85;;;27.92;;
17763;SDS011;22245;52.832;13.816;2024-03-02T10:25:17;50.72;;;27.75;;
17763;SDS011;22245;52.832;13.816;2024-03-02T10:29:02;50.60;;;27.13;;
17763;SDS011;22245;52.832;13.816;2024-03-02T10:32:25;42.67;;;25.42;;
17763;SDS011;22245;52.832;13.816;2024-03-02T10:35:47;45.28;;;24.83;;
17763;SDS011;22245;52.832;13.816;2024-03-02T10:39:11;41.78;;;24.00;;
17763;SDS011;22245;52.832;13.816;2024-03-02T10:42:34;46.70;;;24.98;;
17763;SDS011;22245;52.832;13.816;2024-03-02T10:45:58;41.42;;;23.63;;
17763;SDS011;22245;52.832;13.816;2024-03-02T10:49:21;44.22;;;25.15;;
17763;SDS011;22245;52.832;13.816;2024-03-02T10:52:44;43.35;;;24.90;;
17763;SDS011;22245;52.832;13.816;2024-03-02T10:56:07;42.22;;;24.70;;
17763;SDS011;22245;52.832;13.816;2024-03-02T10:59:33;39.65;;;23.38;;
17763;SDS011;22245;52.832;13.816;2024-03-02T11:02:56;42.95;;;24.90;;
17763;SDS011;22245;52.832;13.816;2024-03-02T11:06:19;38.50;;;23.13;;
17763;SDS011;22245;52.832;13.816;2024-03-02T11:09:44;41.35;;;23.95;;
17763;SDS011;22245;52.832;13.816;2024-03-02T11:13:14;39.35;;;22.70;;
17763;SDS011;22245;52.832;13.816;2024-03-02T11:16:36;42.35;;;23.15;;
17763;SDS011;22245;52.832;13.816;2024-03-02T11:20:01;39.22;;;22.75;;
17763;SDS011;22245;52.832;13.816;2024-03-02T11:23:32;35.90;;;21.92;;
17763;SDS011;22245;52.832;13.816;2024-03-02T11:26:55;36.70;;;21.30;;
17763;SDS011;22245;52.832;13.816;2024-03-02T11:34:23;41.78;;;22.90;;
17763;SDS011;22245;52.832;13.816;2024-03-02T11:37:50;41.67;;;22.63;;
17763;SDS011;22245;52.832;13.816;2024-03-02T11:41:13;33.00;;;19.85;;
17763;SDS011;22245;52.832;13.816;2024-03-02T11:44:35;38.28;;;20.30;;
17763;SDS011;22245;52.832;13.816;2024-03-02T11:47:57;31.45;;;18.35;;
17763;SDS011;22245;52.832;13.816;2024-03-02T11:51:19;28.38;;;16.17;;
17763;SDS011;22245;52.832;13.816;2024-03-02T11:54:42;24.25;;;15.40;;
17763;SDS011;22245;52.832;13.816;2024-03-02T11:58:09;24.75;;;15.48;;
17763;SDS011;22245;52.832;13.816;2024-03-02T12:01:34;28.20;;;15.90;;
17763;SDS011;22245;52.832;13.816;2024-03-02T12:04:56;26.70;;;15.60;;
17763;SDS011;22245;52.832;13.816;2024-03-02T12:08:20;26.40;;;15.13;;
17763;SDS011;22245;52.832;13.816;2024-03-02T12:11:42;25.27;;;14.43;;
17763;SDS011;22245;52.832;13.816;2024-03-02T12:15:05;25.48;;;12.70;;
17763;SDS011;22245;52.832;13.816;2024-03-02T12:18:27;22.48;;;12.68;;
17763;SDS011;22245;52.832;13.816;2024-03-02T12:21:49;20.65;;;13.38;;
17763;SDS011;22245;52.832;13.816;2024-03-02T12:25:11;22.75;;;12.77;;
17763;SDS011;22245;52.832;13.816;2024-03-02T12:28:34;20.17;;;12.80;;
17763;SDS011;22245;52.832;13.816;2024-03-02T12:31:58;23.27;;;13.73;;
17763;SDS011;22245;52.832;13.816;2024-03-02T12:35:22;20.27;;;13.25;;
17763;SDS011;22245;52.832;13.816;2024-03-02T12:38:45;18.40;;;11.98;;
17763;SDS011;22245;52.832;13.816;2024-03-02T12:42:08;19.40;;;12.73;;
17763;SDS011;22245;52.832;13.816;2024-03-02T12:45:29;22.60;;;11.98;;
17763;SDS011;22245;52.832;13.816;2024-03-02T12:48:52;22.63;;;12.02;;
17763;SDS011;22245;52.832;13.816;2024-03-02T12:52:14;18.50;;;11.70;;
17763;SDS011;22245;52.832;13.816;2024-03-02T12:55:39;18.80;;;11.85;;
17763;SDS011;22245;52.832;13.816;2024-03-02T12:59:02;17.95;;;11.57;;
17763;SDS011;22245;52.832;13.816;2024-03-02T13:02:27;19.23;;;11.25;;
17763;SDS011;22245;52.832;13.816;2024-03-02T13:05:50;20.48;;;11.27;;
17763;SDS011;22245;52.832;13.816;2024-03-02T13:09:13;18.55;;;10.98;;
17763;SDS011;22245;52.832;13.816;2024-03-02T13:12:36;20.35;;;11.93;;
17763;SDS011;22245;52.832;13.816;2024-03-02T13:15:58;17.42;;;10.43;;
17763;SDS011;22245;52.832;13.816;2024-03-02T13:19:20;16.50;;;10.27;;
17763;SDS011;22245;52.832;13.816;2024-03-02T13:22:43;18.20;;;10.32;;
17763;SDS011;22245;52.832;13.816;2024-03-02T13:26:05;17.02;;;10.35;;
17763;SDS011;22245;52.832;13.816;2024-03-02T13:29:28;19.35;;;10.63;;
17763;SDS011;22245;52.832;13.816;2024-03-02T13:32:49;18.38;;;10.40;;
17763;SDS011;22245;52.832;13.816;2024-03-02T13:36:11;18.02;;;10.30;;
17763;SDS011;22245;52.832;13.816;2024-03-02T13:39:34;17.00;;;11.27;;
17763;SDS011;22245;52.832;13.816;2024-03-02T13:43:01;22.17;;;11.52;;
17763;SDS011;22245;52.832;13.816;2024-03-02T13:46:23;19.58;;;11.45;;
17763;SDS011;22245;52.832;13.816;2024-03-02T13:49:44;20.02;;;11.95;;
17763;SDS011;22245;52.832;13.816;2024-03-02T13:53:08;19.55;;;12.07;;
17763;SDS011;22245;52.832;13.816;2024-03-02T13:56:31;21.27;;;12.68;;
17763;SDS011;22245;52.832;13.816;2024-03-02T13:59:53;19.08;;;11.93;;
17763;SDS011;22245;52.832;13.816;2024-03-02T14:03:14;19.83;;;11.65;;
17763;SDS011;22245;52.832;13.816;2024-03-02T14:06:36;19.35;;;11.32;;
17763;SDS011;22245;52.832;13.816;2024-03-02T14:09:58;20.00;;;12.55;;
17763;SDS011;22245;52.832;13.816;2024-03-02T14:13:21;20.52;;;13.35;;
17763;SDS011;22245;52.832;13.816;2024-03-02T14:16:43;23.13;;;14.25;;
17763;SDS011;22245;52.832;13.816;2024-03-02T14:20:06;26.00;;;15.25;;
17763;SDS011;22245;52.832;13.816;2024-03-02T14:23:30;30.85;;;17.52;;
17763;SDS011;22245;52.832;13.816;2024-03-02T14:26:51;23.83;;;14.93;;
17763;SDS011;22245;52.832;13.816;2024-03-02T14:30:23;29.02;;;16.67;;
17763;SDS011;22245;52.832;13.816;2024-03-02T14:33:44;27.98;;;17.30;;
17763;SDS011;22245;52.832;13.816;2024-03-02T14:37:06;29.52;;;17.75;;
17763;SDS011;22245;52.832;13.816;2024-03-02T14:40:28;30.17;;;17.30;;
17763;SDS011;22245;52.832;13.816;2024-03-02T14:43:49;35.05;;;19.35;;
17763;SDS011;22245;52.832;13.816;2024-03-02T14:47:12;36.30;;;20.25;;
17763;SDS011;22245;52.832;13.816;2024-03-02T14:50:34;33.55;;;19.33;;
17763;SDS011;22245;52.832;13.816;2024-03-02T14:53:55;35.83;;;19.75;;
17763;SDS011;22245;52.832;13.816;2024-03-02T14:57:16;32.92;;;20.17;;
17763;SDS011;22245;52.832;13.816;2024-03-02T15:00:38;37.10;;;20.92;;
17763;SDS011;22245;52.832;13.816;2024-03-02T15:04:01;37.70;;;22.13;;
17763;SDS011;22245;52.832;13.816;2024-03-02T15:07:23;37.88;;;21.80;;
17763;SDS011;22245;52.832;13.816;2024-03-02T15:10:45;38.05;;;22.27;;
17763;SDS011;22245;52.832;13.816;2024-03-02T15:14:06;37.25;;;21.50;;
17763;SDS011;22245;52.832;13.816;2024-03-02T15:17:28;37.85;;;21.48;;
17763;SDS011;22245;52.832;13.816;2024-03-02T15:20:51;38.65;;;21.42;;
17763;SDS011;22245;52.832;13.816;2024-03-02T15:24:12;37.85;;;21.17;;
17763;SDS011;22245;52.832;13.816;2024-03-02T15:27:34;37.88;;;22.30;;
17763;SDS011;22245;52.832;13.816;2024-03-02T15:30:55;36.25;;;20.45;;
17763;SDS011;22245;52.832;13.816;2024-03-02T15:34:17;37.10;;;21.75;;
17763;SDS011;22245;52.832;13.816;2024-03-02T15:37:40;36.42;;;22.52;;
17763;SDS011;22245;52.832;13.816;2024-03-02T15:41:02;37.63;;;20.35;;
17763;SDS011;22245;52.832;13.816;2024-03-02T15:44:24;36.20;;;21.85;;
17763;SDS011;22245;52.832;13.816;2024-03-02T15:47:46;38.90;;;23.05;;
17763;SDS011;22245;52.832;13.816;2024-03-02T15:51:08;42.00;;;24.65;;
17763;SDS011;22245;52.832;13.816;2024-03-02T15:54:31;38.13;;;23.58;;
17763;SDS011;22245;52.832;13.816;2024-03-02T15:57:53;35.70;;;21.75;;
17763;SDS011;22245;52.832;13.816;2024-03-02T16:01:15;32.10;;;20.20;;
17763;SDS011;22245;52.832;13.816;2024-03-02T16:04:37;34.85;;;21.50;;
17763;SDS011;22245;52.832;13.816;2024-03-02T16:07:58;34.78;;;20.55;;
17763;SDS011;22245;52.832;13.816;2024-03-02T16:11:21;34.47;;;20.45;;
17763;SDS011;22245;52.832;13.816;2024-03-02T16:14:43;36.53;;;20.30;;
17763;SDS011;22245;52.832;13.816;2024-03-02T16:18:05;34.15;;;20.58;;
17763;SDS011;22245;52.832;13.816;2024-03-02T16:21:26;33.10;;;19.40;;
17763;SDS011;22245;52.832;13.816;2024-03-02T16:24:48;31.15;;;19.17;;
17763;SDS011;22245;52.832;13.816;2024-03-02T16:28:11;34.67;;;20.30;;
17763;SDS011;22245;52.832;13.816;2024-03-02T16:31:33;37.67;;;20.75;;
17763;SDS011;22245;52.832;13.816;2024-03-02T16:34:55;34.35;;;20.08;;
17763;SDS011;22245;52.832;13.816;2024-03-02T16:38:17;34.92;;;20.90;;
17763;SDS011;22245;52.832;13.816;2024-03-02T16:41:38;34.78;;;20.85;;
17763;SDS011;22245;52.832;13.816;2024-03-02T16:45:04;31.38;;;20.10;;
17763;SDS011;22245;52.832;13.816;2024-03-02T16:48:26;32.63;;;20.13;;
17763;SDS011;22245;52.832;13.816;2024-03-02T16:51:48;38.20;;;21.58;;
17763;SDS011;22245;52.832;13.816;2024-03-02T16:55:09;38.17;;;23.88;;
17763;SDS011;22245;52.832;13.816;2024-03-02T16:58:31;44.03;;;26.40;;
17763;SDS011;22245;52.832;13.816;2024-03-02T17:01:54;41.80;;;25.55;;
17763;SDS011;22245;52.832;13.816;2024-03-02T17:05:15;45.40;;;28.48;;
17763;SDS011;22245;52.832;13.816;2024-03-02T17:08:41;47.85;;;26.98;;
17763;SDS011;22245;52.832;13.816;2024-03-02T17:12:02;44.75;;;27.42;;
17763;SDS011;22245;52.832;13.816;2024-03-02T17:15:24;45.33;;;26.98;;
17763;SDS011;22245;52.832;13.816;2024-03-02T17:18:47;49.08;;;28.17;;
17763;SDS011;22245;52.832;13.816;2024-03-02T17:22:09;42.58;;;26.33;;
17763;SDS011;22245;52.832;13.816;2024-03-02T17:25:31;45.20;;;27.50;;
17763;SDS011;22245;52.832;13.816;2024-03-02T17:28:52;46.95;;;27.88;;
17763;SDS011;22245;52.832;13.816;2024-03-02T17:32:14;52.03;;;28.02;;
17763;SDS011;22245;52.832;13.816;2024-03-02T17:35:37;45.45;;;27.13;;
17763;SDS011;22245;52.832;13.816;2024-03-02T17:38:58;44.03;;;28.30;;
17763;SDS011;22245;52.832;13.816;2024-03-02T17:42:19;47.50;;;27.92;;
17763;SDS011;22245;52.832;13.816;2024-03-02T17:45:41;47.10;;;29.20;;
17763;SDS011;22245;52.832;13.816;2024-03-02T17:49:02;48.38;;;29.25;;
17763;SDS011;22245;52.832;13.816;2024-03-02T17:52:25;47.95;;;29.45;;
17763;SDS011;22245;52.832;13.816;2024-03-02T17:55:47;64.05;;;39.28;;
17763;SDS011;22245;52.832;13.816;2024-03-02T17:59:09;73.43;;;43.33;;
17763;SDS011;22245;52.832;13.816;2024-03-02T18:02:30;60.55;;;36.22;;
17763;SDS011;22245;52.832;13.816;2024-03-02T18:05:53;55.22;;;33.15;;
17763;SDS011;22245;52.832;13.816;2024-03-02T18:09:16;55.90;;;32.97;;
17763;SDS011;22245;52.832;13.816;2024-03-02T18:12:37;51.50;;;30.98;;
17763;SDS011;22245;52.832;13.816;2024-03-02T18:16:00;50.35;;;30.00;;
17763;SDS011;22245;52.832;13.816;2024-03-02T18:19:23;51.17;;;30.27;;
17763;SDS011;22245;52.832;13.816;2024-03-02T18:22:49;54.97;;;31.55;;
17763;SDS011;22245;52.832;13.816;2024-03-02T18:26:12;55.47;;;31.10;;
17763;SDS011;22245;52.832;13.816;2024-03-02T18:29:34;51.30;;;31.85;;
17763;SDS011;22245;52.832;13.816;2024-03-02T18:32:55;53.47;;;32.42;;
17763;SDS011;22245;52.832;13.816;2024-03-02T18:36:17;55.85;;;32.83;;
17763;SDS011;22245;52.832;13.816;2024-03-02T18:39:38;50.70;;;31.00;;
17763;SDS011;22245;52.832;13.816;2024-03-02T18:43:01;49.03;;;30.67;;
17763;SDS011;22245;52.832;13.816;2024-03-02T18:46:24;52.20;;;30.48;;
17763;SDS011;22245;52.832;13.816;2024-03-02T18:49:45;51.10;;;29.85;;
17763;SDS011;22245;52.832;13.816;2024-03-02T18:53:07;53.63;;;30.67;;
17763;SDS011;22245;52.832;13.816;2024-03-02T18:56:32;48.97;;;30.40;;
17763;SDS011;22245;52.832;13.816;2024-03-02T18:59:55;53.63;;;30.05;;
17763;SDS011;22245;52.832;13.816;2024-03-02T19:03:19;55.40;;;31.05;;
17763;SDS011;22245;52.832;13.816;2024-03-02T19:06:41;56.88;;;31.02;;
17763;SDS011;22245;52.832;13.816;2024-03-02T19:10:05;55.35;;;31.73;;
17763;SDS011;22245;52.832;13.816;2024-03-02T19:13:29;48.40;;;30.00;;
17763;SDS011;22245;52.832;13.816;2024-03-02T19:16:53;49.50;;;30.13;;
17763;SDS011;22245;52.832;13.816;2024-03-02T19:20:15;54.47;;;30.83;;
17763;SDS011;22245;52.832;13.816;2024-03-02T19:23:37;56.55;;;32.47;;
17763;SDS011;22245;52.832;13.816;2024-03-02T19:27:04;53.60;;;31.05;;
17763;SDS011;22245;52.832;13.816;2024-03-02T19:30:25;55.72;;;31.30;;
17763;SDS011;22245;52.832;13.816;2024-03-02T19:33:49;52.97;;;30.95;;
17763;SDS011;22245;52.832;13.816;2024-03-02T19:37:10;56.90;;;33.70;;
17763;SDS011;22245;52.832;13.816;2024-03-02T19:40:31;56.33;;;32.72;;